Taylor, WI (54659)

9:59 PM CDT on May 29, 2015 (GMT -0500)
WIDOT | | Change Station
CLOSE
Current Station
Personal Weather Station
Location: Black River Falls, WI
Elevation: 1090 ft
Nearby Weather Stations

Elev 1090 ft 44.34 °N, 90.91 °W | Updated 53 minutes ago

Rain
Rain
64 °F
Feels Like 64 °F
N
0
Wind Variable Wind from ENE
Gusts 0.0 mph

Today
High -- | Low -- °F
--% Chance of Precip.
Yesterday
High -- | Low -- °F
Precip. -- in
5:25 AM 8:38 PM
Waxing Gibbous, 87% visible
Pressure 29.91 in
Visibility 4.0 miles
Clouds Scattered Clouds 1900 ft
Scattered Clouds 3800 ft
Overcast 9000 ft
Dew Point 62 °F
Humidity 94%
Rainfall in
Snow Depth Not available.
UV 0 out of 12
Pollen .80 out of 12
Air Quality Not available.
Flu Activity Sporadic
METAR KBCK 300255Z AUTO 00000KT 4SM -RA SCT019 SCT038 OVC090 18/18 A2991 RMK AO2 P0002 60021 T01770177

More Conditions Fewer Conditions

Pressure 29.91 in
Visibility 4.0 miles
Clouds Scattered Clouds 1900 ft
Scattered Clouds 3800 ft
Overcast 9000 ft
Dew Point 62 °F
Humidity 94%
Rainfall in
Snow Depth Not available.
UV 0 out of 12
Pollen .80 out of 12
Air Quality Not available.
Flu Activity Sporadic
METAR KBCK 300255Z AUTO 00000KT 4SM -RA SCT019 SCT038 OVC090 18/18 A2991 RMK AO2 P0002 60021 T01770177

More Conditions Fewer Conditions

10-Day Weather Forecast

Almanac

Astronomy

May. 29, 2015 Rise Set
Actual Time
Civil Twilight
Nautical Twilight
Astronomical Twilight
Moon
Length of Visible Light
Length of Day
Tomorrow will be .
, % of the Moon is Illuminated

Today's Extremes

State Highs State Lows

Community

WunderPhotos

Upload Photos

1,825,430 photos uploaded!

WunderBlogs® & News

Nearby

Air Quality

  Air Quality AQ Index Pollutant
Not available.

Snow Depth

Station Depth Elevation

Earthquake Activity

City Distance Mag. Time & Date
Minimum magnitude displayed is 2.5.

Coastal Water Temperatures

Place Temperature

Stations

Nearby Weather Stations

Station Location Temp. Windchill Dew Point Humidity Wind Precip. Elev Updated Type